createdAt,value
2023-07-02T00:01:51.460Z,18.91
2023-07-02T00:04:17.182Z,18.86
2023-07-02T00:06:41.629Z,18.87
2023-07-02T00:09:03.300Z,18.85
2023-07-02T00:11:24.979Z,18.81
2023-07-02T00:13:46.623Z,18.78
2023-07-02T00:16:08.317Z,18.75
2023-07-02T00:18:34.871Z,18.75
2023-07-02T00:20:56.772Z,18.74
2023-07-02T00:23:18.472Z,18.72
2023-07-02T00:25:40.170Z,18.68
2023-07-02T00:28:01.777Z,18.68
2023-07-02T00:30:23.480Z,18.64
2023-07-02T00:32:45.155Z,18.62
2023-07-02T00:35:07.768Z,18.58
2023-07-02T00:37:31.813Z,18.54
2023-07-02T00:39:53.589Z,18.51
2023-07-02T00:42:15.440Z,18.52
2023-07-02T00:44:41.711Z,18.51
2023-07-02T00:47:03.715Z,18.46
2023-07-02T00:49:25.594Z,18.44
2023-07-02T00:51:47.587Z,18.45
2023-07-02T00:54:09.733Z,18.46
2023-07-02T00:56:31.422Z,18.45
2023-07-02T00:58:59.883Z,18.46
2023-07-02T01:01:26.232Z,18.46
2023-07-02T01:03:53.460Z,18.48
2023-07-02T01:06:16.831Z,18.44
2023-07-02T01:08:38.464Z,18.43
2023-07-02T01:11:00.593Z,18.46
2023-07-02T01:13:25.295Z,18.48
2023-07-02T01:15:48.079Z,18.45
2023-07-02T01:18:11.606Z,18.45
2023-07-02T01:20:35.849Z,18.44
2023-07-02T01:23:03.764Z,18.42
2023-07-02T01:25:25.867Z,18.43
2023-07-02T01:27:47.818Z,18.44
2023-07-02T01:30:10.977Z,18.45
2023-07-02T01:32:32.741Z,18.45
2023-07-02T01:34:54.941Z,18.40
2023-07-02T01:37:20.595Z,18.42
2023-07-02T01:39:42.278Z,18.41
2023-07-02T01:42:21.012Z,18.43
2023-07-02T01:44:43.799Z,18.41
2023-07-02T01:47:06.455Z,18.37
2023-07-02T01:49:28.208Z,18.29
2023-07-02T01:51:54.454Z,18.20
2023-07-02T01:54:16.344Z,18.12
2023-07-02T01:56:38.031Z,18.08
2023-07-02T01:58:59.894Z,18.07
2023-07-02T02:01:22.229Z,18.08
2023-07-02T02:03:44.138Z,18.09
2023-07-02T02:06:05.902Z,18.10
2023-07-02T02:08:27.642Z,18.10
2023-07-02T02:10:49.518Z,18.10
2023-07-02T02:13:11.352Z,18.10
2023-07-02T02:15:33.154Z,18.10
2023-07-02T02:17:54.844Z,18.10
2023-07-02T02:20:16.690Z,18.08
2023-07-02T02:22:38.841Z,18.07
2023-07-02T02:25:00.544Z,18.03
2023-07-02T02:27:23.156Z,18.01
2023-07-02T02:29:44.892Z,17.96
2023-07-02T02:32:07.218Z,17.95
2023-07-02T02:34:30.549Z,17.90
2023-07-02T02:36:52.494Z,17.85
2023-07-02T02:39:15.119Z,17.81
2023-07-02T02:41:36.750Z,17.77
2023-07-02T02:43:58.573Z,17.75
2023-07-02T02:46:24.311Z,17.71
2023-07-02T02:48:46.307Z,17.68
2023-07-02T02:51:08.086Z,17.65
2023-07-02T02:53:29.722Z,17.64
2023-07-02T02:55:51.390Z,17.63
2023-07-02T02:58:13.176Z,17.63
2023-07-02T03:00:34.936Z,17.65
2023-07-02T03:02:56.794Z,17.66
2023-07-02T03:05:18.692Z,17.66
2023-07-02T03:07:40.476Z,17.63
2023-07-02T03:10:02.678Z,17.59
2023-07-02T03:12:27.384Z,17.54
2023-07-02T03:14:53.861Z,17.50
2023-07-02T03:17:15.586Z,17.48
2023-07-02T03:19:37.307Z,17.46
2023-07-02T03:21:58.929Z,17.42
2023-07-02T03:24:20.623Z,17.39
2023-07-02T03:26:42.912Z,17.39
2023-07-02T03:29:04.571Z,17.40
2023-07-02T03:31:26.519Z,17.40
2023-07-02T03:33:48.585Z,17.41
2023-07-02T03:36:10.273Z,17.39
2023-07-02T03:38:31.985Z,17.38
2023-07-02T03:40:53.647Z,17.34
2023-07-02T03:43:15.418Z,17.33
2023-07-02T03:45:37.136Z,17.32
2023-07-02T03:47:59.346Z,17.29
2023-07-02T03:50:21.296Z,17.28
2023-07-02T03:52:43.049Z,17.27
2023-07-02T03:55:05.854Z,17.27
2023-07-02T03:57:27.527Z,17.26
2023-07-02T03:59:49.597Z,17.25
2023-07-02T04:02:11.361Z,17.24
2023-07-02T04:04:33.150Z,17.22
2023-07-02T04:06:54.970Z,17.23
2023-07-02T04:09:16.720Z,17.24
2023-07-02T04:11:38.405Z,17.23
2023-07-02T04:14:00.133Z,17.25
2023-07-02T04:16:21.844Z,17.26
2023-07-02T04:18:43.550Z,17.25
2023-07-02T04:21:05.285Z,17.26
2023-07-02T04:23:26.943Z,17.27
2023-07-02T04:26:06.359Z,17.24
2023-07-02T04:28:30.994Z,17.26
2023-07-02T04:30:54.147Z,17.27
2023-07-02T04:33:16.320Z,17.25
2023-07-02T04:35:38.064Z,17.27
2023-07-02T04:37:59.991Z,17.29
2023-07-02T04:40:21.690Z,17.30
2023-07-02T04:42:50.223Z,17.35
2023-07-02T04:45:11.861Z,17.38
2023-07-02T04:47:34.212Z,17.40
2023-07-02T04:49:56.064Z,17.43
2023-07-02T04:52:17.781Z,17.47
2023-07-02T04:54:39.638Z,17.52
2023-07-02T04:57:02.630Z,17.52
2023-07-02T04:59:24.803Z,17.53
2023-07-02T05:01:46.484Z,17.53
2023-07-02T05:04:12.604Z,17.58
2023-07-02T05:06:34.373Z,17.59
2023-07-02T05:08:56.107Z,17.62
2023-07-02T05:11:18.815Z,17.65
2023-07-02T05:13:40.574Z,17.67
2023-07-02T05:16:02.296Z,17.72
2023-07-02T05:18:23.966Z,17.74
2023-07-02T05:20:45.844Z,17.74
2023-07-02T05:23:07.684Z,17.77
2023-07-02T05:25:29.391Z,17.82
2023-07-02T05:27:51.132Z,17.85
2023-07-02T05:30:13.695Z,17.89
2023-07-02T05:32:36.016Z,17.91
2023-07-02T05:34:57.771Z,17.93
2023-07-02T05:37:19.507Z,17.96
2023-07-02T05:39:41.206Z,18.03
2023-07-02T05:42:03.029Z,18.07
2023-07-02T05:44:24.812Z,18.07
2023-07-02T05:46:46.621Z,18.10
2023-07-02T05:49:08.444Z,18.15
2023-07-02T05:51:30.197Z,18.17
2023-07-02T05:53:52.500Z,18.20
2023-07-02T05:56:14.304Z,18.21
2023-07-02T05:58:47.265Z,18.25
2023-07-02T06:01:10.438Z,18.27
2023-07-02T06:03:32.134Z,18.34
2023-07-02T06:05:54.012Z,18.38
2023-07-02T06:08:19.798Z,18.43
2023-07-02T06:10:41.512Z,18.46
2023-07-02T06:13:03.239Z,18.47
2023-07-02T06:15:25.067Z,18.50
2023-07-02T06:17:46.901Z,18.52
2023-07-02T06:20:09.507Z,18.56
2023-07-02T06:22:31.898Z,18.59
2023-07-02T06:24:53.603Z,18.61
2023-07-02T06:27:15.434Z,18.63
2023-07-02T06:29:37.168Z,18.68
2023-07-02T06:31:58.860Z,18.76
2023-07-02T06:34:20.639Z,18.77
2023-07-02T06:36:43.571Z,18.80
2023-07-02T06:39:05.301Z,18.85
2023-07-02T06:41:27.305Z,18.88
2023-07-02T06:43:49.178Z,18.91
2023-07-02T06:46:12.949Z,18.94
2023-07-02T06:48:34.916Z,18.96
2023-07-02T06:50:57.188Z,19.02
2023-07-02T06:53:19.167Z,19.07
2023-07-02T06:55:40.891Z,19.09
2023-07-02T06:58:02.537Z,19.14
2023-07-02T07:00:24.265Z,19.22
2023-07-02T07:02:45.969Z,19.24
2023-07-02T07:05:08.163Z,19.31
2023-07-02T07:07:29.872Z,19.31
2023-07-02T07:09:51.553Z,19.35
2023-07-02T07:12:13.208Z,19.40
2023-07-02T07:14:34.985Z,19.45
2023-07-02T07:16:56.652Z,19.52
2023-07-02T07:19:18.349Z,19.60
2023-07-02T07:21:41.067Z,19.66
2023-07-02T07:24:03.309Z,19.67
2023-07-02T07:26:24.965Z,19.74
2023-07-02T07:28:46.695Z,19.75
2023-07-02T07:31:08.406Z,19.76
2023-07-02T07:33:30.089Z,19.83
2023-07-02T07:35:51.810Z,19.88
2023-07-02T07:38:16.920Z,19.88
2023-07-02T07:40:38.550Z,19.88
2023-07-02T07:43:00.431Z,19.92
2023-07-02T07:45:22.270Z,19.98
2023-07-02T07:47:44.403Z,20.06
2023-07-02T07:50:11.220Z,20.15
2023-07-02T07:52:33.728Z,20.13
2023-07-02T07:54:55.532Z,20.17
2023-07-02T07:57:17.267Z,20.24
2023-07-02T07:59:38.913Z,20.27
2023-07-02T08:02:00.686Z,20.25
2023-07-02T08:04:22.458Z,20.27
2023-07-02T08:06:45.562Z,20.39
2023-07-02T08:09:07.425Z,20.48
2023-07-02T08:11:29.833Z,20.47
2023-07-02T08:13:53.433Z,20.56
2023-07-02T08:16:16.783Z,20.66
2023-07-02T08:18:39.022Z,20.57
2023-07-02T08:21:00.718Z,20.54
2023-07-02T08:23:22.542Z,20.56
2023-07-02T08:25:44.219Z,20.51
2023-07-02T08:28:05.912Z,20.49
2023-07-02T08:30:27.626Z,20.48
2023-07-02T08:32:49.516Z,20.50
2023-07-02T08:35:11.239Z,20.49
2023-07-02T08:37:33.433Z,20.43
2023-07-02T08:39:55.203Z,20.42
2023-07-02T08:42:17.609Z,20.47
2023-07-02T08:44:39.564Z,20.53
2023-07-02T08:47:02.600Z,20.48
2023-07-02T08:49:24.702Z,20.45
2023-07-02T08:51:48.340Z,20.47
2023-07-02T08:54:10.089Z,20.76
2023-07-02T08:56:31.859Z,20.81
2023-07-02T08:58:54.281Z,20.77
2023-07-02T09:01:16.130Z,20.73
2023-07-02T09:03:39.481Z,20.60
2023-07-02T09:06:01.453Z,20.46
2023-07-02T09:08:28.678Z,20.35
2023-07-02T09:10:50.678Z,20.36
2023-07-02T09:13:12.691Z,20.39
2023-07-02T09:15:42.207Z,20.42
2023-07-02T09:18:04.090Z,20.40
2023-07-02T09:20:33.895Z,20.30
2023-07-02T09:22:56.084Z,20.18
2023-07-02T09:25:17.997Z,20.17
2023-07-02T09:27:42.870Z,20.50
2023-07-02T09:30:17.017Z,20.73
2023-07-02T09:32:39.345Z,20.93
2023-07-02T09:35:01.837Z,21.22
2023-07-02T09:37:23.852Z,21.34
2023-07-02T09:39:51.448Z,21.47
2023-07-02T09:42:13.198Z,21.43
2023-07-02T09:44:36.793Z,21.55
2023-07-02T09:47:10.326Z,21.78
2023-07-02T09:49:42.132Z,22.03
2023-07-02T09:52:07.915Z,22.25
2023-07-02T09:54:30.693Z,22.38
2023-07-02T09:56:52.606Z,22.32
2023-07-02T09:59:15.841Z,22.22
2023-07-02T10:01:38.609Z,22.11
2023-07-02T10:04:13.073Z,22.19
2023-07-02T10:06:55.943Z,22.24
2023-07-02T10:09:18.795Z,22.40
2023-07-02T10:11:40.487Z,22.37
2023-07-02T10:14:02.172Z,22.24
2023-07-02T10:16:23.897Z,22.23
2023-07-02T10:18:45.918Z,22.21
2023-07-02T10:21:16.888Z,22.44
2023-07-02T10:23:38.616Z,22.53
2023-07-02T10:26:12.302Z,22.47
2023-07-02T10:28:34.099Z,22.27
2023-07-02T10:30:56.793Z,22.30
2023-07-02T10:33:19.615Z,22.43
2023-07-02T10:35:46.046Z,22.36
2023-07-02T10:38:08.197Z,22.50
2023-07-02T10:40:30.793Z,22.67
2023-07-02T10:42:54.145Z,22.90
2023-07-02T10:45:16.996Z,22.97
2023-07-02T10:47:43.308Z,22.84
2023-07-02T10:50:21.587Z,22.76
2023-07-02T10:52:43.579Z,22.71
2023-07-02T10:55:06.521Z,22.58
2023-07-02T10:57:28.365Z,22.39
2023-07-02T10:59:50.201Z,22.20
2023-07-02T11:02:12.397Z,22.08
2023-07-02T11:04:35.228Z,22.03
2023-07-02T11:06:57.125Z,22.06
2023-07-02T11:09:21.971Z,22.30
2023-07-02T11:11:59.675Z,22.55
2023-07-02T11:14:50.905Z,22.74
2023-07-02T11:17:12.927Z,22.70
2023-07-02T11:19:36.179Z,22.62
2023-07-02T11:21:59.964Z,22.54
2023-07-02T11:24:37.012Z,22.51
2023-07-02T11:27:00.399Z,22.46
2023-07-02T11:29:22.366Z,22.44
2023-07-02T11:31:44.775Z,22.35
2023-07-02T11:34:24.391Z,22.20
2023-07-02T11:36:48.119Z,21.96
2023-07-02T11:39:10.205Z,21.88
2023-07-02T11:41:42.626Z,21.84
2023-07-02T11:44:04.580Z,21.69
2023-07-02T11:46:26.426Z,21.80
2023-07-02T11:48:48.288Z,21.97
2023-07-02T11:51:10.202Z,22.15
2023-07-02T11:53:32.214Z,22.39
2023-07-02T11:55:54.038Z,22.53
2023-07-02T11:58:15.871Z,22.64
2023-07-02T12:00:37.638Z,22.85
2023-07-02T12:02:59.548Z,22.83
2023-07-02T12:05:21.586Z,22.93
2023-07-02T12:07:43.300Z,22.95
2023-07-02T12:10:08.397Z,22.82
2023-07-02T12:12:30.133Z,22.98
2023-07-02T12:14:51.940Z,23.12
2023-07-02T12:17:13.836Z,22.96
2023-07-02T12:19:35.525Z,22.84
2023-07-02T12:21:57.335Z,22.69
2023-07-02T12:24:19.226Z,22.52
2023-07-02T12:26:42.065Z,22.57
2023-07-02T12:29:05.119Z,22.82
2023-07-02T12:31:26.986Z,23.06
2023-07-02T12:33:48.761Z,23.17
2023-07-02T12:36:10.706Z,23.18
2023-07-02T12:38:32.545Z,23.50
2023-07-02T12:40:54.327Z,23.84
2023-07-02T12:43:16.248Z,23.99
2023-07-02T12:45:38.088Z,23.88
2023-07-02T12:47:59.910Z,23.69
2023-07-02T12:50:22.018Z,23.41
2023-07-02T12:52:43.973Z,23.22
2023-07-02T12:55:06.390Z,23.05
2023-07-02T12:57:28.574Z,23.28
2023-07-02T12:59:50.389Z,23.50
2023-07-02T13:02:12.275Z,23.49
2023-07-02T13:04:34.580Z,23.66
2023-07-02T13:06:56.330Z,23.95
2023-07-02T13:09:18.080Z,24.02
2023-07-02T13:11:39.957Z,24.19
2023-07-02T13:14:01.681Z,24.31
2023-07-02T13:16:23.393Z,24.34
2023-07-02T13:18:45.141Z,24.28
2023-07-02T13:21:06.757Z,23.89
2023-07-02T13:23:28.568Z,23.86
2023-07-02T13:25:50.480Z,23.72
2023-07-02T13:28:13.521Z,23.56
2023-07-02T13:30:35.225Z,23.64
2023-07-02T13:32:57.020Z,23.87
2023-07-02T13:35:18.688Z,23.89
2023-07-02T13:37:40.477Z,23.98
2023-07-02T13:40:04.825Z,24.20
2023-07-02T13:42:27.374Z,24.24
2023-07-02T13:44:49.081Z,24.31
2023-07-02T13:47:12.214Z,24.14
2023-07-02T13:49:34.548Z,23.87
2023-07-02T13:51:56.235Z,23.63
2023-07-02T13:54:19.690Z,23.65
2023-07-02T13:56:41.476Z,23.54
2023-07-02T13:59:04.964Z,23.40
2023-07-02T14:01:27.720Z,23.42
2023-07-02T14:03:49.725Z,23.35
2023-07-02T14:06:11.491Z,23.50
2023-07-02T14:08:33.204Z,23.82
2023-07-02T14:10:54.966Z,24.01
2023-07-02T14:13:16.657Z,24.02
2023-07-02T14:15:38.667Z,23.90
2023-07-02T14:18:00.532Z,23.84
2023-07-02T14:20:22.448Z,23.88
2023-07-02T14:22:45.878Z,23.74
2023-07-02T14:25:10.077Z,23.90
2023-07-02T14:27:31.921Z,24.13
2023-07-02T14:29:53.693Z,24.36
2023-07-02T14:32:15.986Z,24.33
2023-07-02T14:34:37.797Z,24.11
2023-07-02T14:37:00.085Z,24.00
2023-07-02T14:39:21.831Z,24.05
2023-07-02T14:41:43.549Z,24.18
2023-07-02T14:44:05.966Z,24.24
2023-07-02T14:46:27.732Z,24.34
2023-07-02T14:48:49.501Z,24.45
2023-07-02T14:51:11.143Z,24.47
2023-07-02T14:53:34.680Z,24.40
2023-07-02T14:56:01.391Z,24.41
2023-07-02T14:58:24.435Z,24.25
2023-07-02T15:00:47.273Z,24.37
2023-07-02T15:03:10.641Z,24.34
2023-07-02T15:05:32.531Z,24.46
2023-07-02T15:07:54.271Z,24.47
2023-07-02T15:10:16.032Z,24.43
2023-07-02T15:12:38.882Z,24.39
2023-07-02T15:15:00.716Z,24.48
2023-07-02T15:17:22.589Z,24.49
2023-07-02T15:19:44.274Z,24.29
2023-07-02T15:22:06.064Z,24.04
2023-07-02T15:24:27.872Z,24.09
2023-07-02T15:26:49.715Z,24.15
2023-07-02T15:29:11.422Z,24.27
2023-07-02T15:31:33.369Z,24.41
2023-07-02T15:33:55.469Z,24.54
2023-07-02T15:36:17.224Z,24.52
2023-07-02T15:38:39.007Z,24.56
2023-07-02T15:41:12.126Z,24.55
2023-07-02T15:43:34.366Z,24.35
2023-07-02T15:45:56.021Z,24.22
2023-07-02T15:48:17.720Z,24.38
2023-07-02T15:50:39.466Z,24.44
2023-07-02T15:53:01.183Z,24.60
2023-07-02T15:55:23.223Z,24.56
2023-07-02T15:57:46.812Z,24.28
2023-07-02T16:00:09.847Z,24.07
2023-07-02T16:02:37.433Z,23.99
2023-07-02T16:04:59.415Z,24.00
2023-07-02T16:07:21.203Z,23.98
2023-07-02T16:09:43.016Z,24.11
2023-07-02T16:12:05.403Z,24.20
2023-07-02T16:14:27.071Z,24.30
2023-07-02T16:16:55.040Z,24.27
2023-07-02T16:19:16.849Z,24.19
2023-07-02T16:21:40.963Z,24.05
2023-07-02T16:24:02.732Z,23.97
2023-07-02T16:26:24.504Z,23.81
2023-07-02T16:28:46.183Z,23.66
2023-07-02T16:31:10.351Z,23.44
2023-07-02T16:33:34.582Z,23.29
2023-07-02T16:35:56.520Z,23.23
2023-07-02T16:38:18.694Z,23.20
2023-07-02T16:40:40.894Z,23.21
2023-07-02T16:43:03.433Z,23.30
2023-07-02T16:45:25.142Z,23.58
2023-07-02T16:47:47.547Z,23.65
2023-07-02T16:50:09.932Z,23.73
2023-07-02T16:52:31.948Z,23.67
2023-07-02T16:54:53.905Z,23.45
2023-07-02T16:57:15.595Z,23.26
2023-07-02T16:59:38.488Z,23.08
2023-07-02T17:02:00.586Z,22.94
2023-07-02T17:04:24.732Z,22.91
2023-07-02T17:06:51.519Z,22.99
2023-07-02T17:09:24.902Z,23.01
2023-07-02T17:11:46.738Z,23.16
2023-07-02T17:14:08.377Z,23.28
2023-07-02T17:16:30.055Z,23.29
2023-07-02T17:18:51.968Z,23.22
2023-07-02T17:21:13.709Z,23.10
2023-07-02T17:23:35.405Z,22.97
2023-07-02T17:26:07.444Z,22.90
2023-07-02T17:28:30.800Z,22.80
2023-07-02T17:30:53.707Z,22.76
2023-07-02T17:33:15.470Z,22.70
2023-07-02T17:35:43.326Z,22.63
2023-07-02T17:38:05.173Z,22.56
2023-07-02T17:40:26.899Z,22.54
2023-07-02T17:42:48.559Z,22.51
2023-07-02T17:45:11.000Z,22.51
2023-07-02T17:47:32.646Z,22.51
2023-07-02T17:49:54.347Z,22.48
2023-07-02T17:52:21.791Z,22.39
2023-07-02T17:54:47.414Z,22.30
2023-07-02T17:57:11.562Z,22.25
2023-07-02T17:59:34.730Z,22.22
2023-07-02T18:01:58.059Z,22.16
2023-07-02T18:04:21.711Z,22.12
2023-07-02T18:06:46.912Z,22.04
2023-07-02T18:09:08.816Z,21.96
2023-07-02T18:11:30.788Z,21.88
2023-07-02T18:13:52.488Z,21.80
2023-07-02T18:16:14.623Z,21.73
2023-07-02T18:18:36.431Z,21.69
2023-07-02T18:20:58.529Z,21.65
2023-07-02T18:23:21.404Z,21.63
2023-07-02T18:25:43.279Z,21.56
2023-07-02T18:28:15.229Z,21.46
2023-07-02T18:30:42.553Z,21.39
2023-07-02T18:33:07.381Z,21.35
2023-07-02T18:35:29.272Z,21.31
2023-07-02T18:37:51.727Z,21.30
2023-07-02T18:40:15.350Z,21.29
2023-07-02T18:42:37.078Z,21.32
2023-07-02T18:44:58.754Z,21.34
2023-07-02T18:47:22.140Z,21.35
2023-07-02T18:49:43.798Z,21.29
2023-07-02T18:52:14.957Z,21.23
2023-07-02T18:54:37.434Z,21.19
2023-07-02T18:56:59.132Z,21.14
2023-07-02T18:59:20.839Z,21.09
2023-07-02T19:01:42.539Z,21.05
2023-07-02T19:04:05.629Z,21.02
2023-07-02T19:06:27.376Z,20.98
2023-07-02T19:08:49.385Z,20.94
2023-07-02T19:11:11.187Z,20.91
2023-07-02T19:13:33.698Z,20.89
2023-07-02T19:15:55.751Z,20.87
2023-07-02T19:18:17.475Z,20.88
2023-07-02T19:20:39.127Z,20.83
2023-07-02T19:23:01.149Z,20.75
2023-07-02T19:25:23.521Z,20.69
2023-07-02T19:27:45.143Z,20.59
2023-07-02T19:30:09.013Z,20.52
2023-07-02T19:32:33.801Z,20.46
2023-07-02T19:34:57.835Z,20.42
2023-07-02T19:37:22.528Z,20.37
2023-07-02T19:39:44.191Z,20.35
2023-07-02T19:42:08.412Z,20.33
2023-07-02T19:44:30.125Z,20.31
2023-07-02T19:46:51.752Z,20.33
2023-07-02T19:49:17.524Z,20.31
2023-07-02T19:51:40.800Z,20.30
2023-07-02T19:54:04.412Z,20.32
2023-07-02T19:56:26.076Z,20.32
2023-07-02T19:58:49.774Z,20.29
2023-07-02T20:01:14.043Z,20.23
2023-07-02T20:03:35.795Z,20.16
2023-07-02T20:05:58.056Z,20.14
2023-07-02T20:08:20.245Z,20.10
2023-07-02T20:10:41.967Z,20.09
2023-07-02T20:13:04.020Z,20.09
2023-07-02T20:15:25.722Z,20.07
2023-07-02T20:17:47.468Z,20.06
2023-07-02T20:20:10.098Z,20.05
2023-07-02T20:22:32.252Z,20.05
2023-07-02T20:24:53.969Z,20.04
2023-07-02T20:27:19.715Z,20.03
2023-07-02T20:29:41.621Z,20.02
2023-07-02T20:32:03.617Z,20.00
2023-07-02T20:34:27.298Z,19.96
2023-07-02T20:36:52.026Z,19.90
2023-07-02T20:39:13.873Z,19.85
2023-07-02T20:41:35.706Z,19.78
2023-07-02T20:44:01.309Z,19.75
2023-07-02T20:46:24.469Z,19.71
2023-07-02T20:48:46.213Z,19.70
2023-07-02T20:51:07.884Z,19.61
2023-07-02T20:53:29.522Z,19.58
2023-07-02T20:55:56.473Z,19.60
2023-07-02T20:58:18.483Z,19.59
2023-07-02T21:00:50.236Z,19.60
2023-07-02T21:03:19.465Z,19.58
2023-07-02T21:05:41.140Z,19.54
2023-07-02T21:08:02.779Z,19.51
2023-07-02T21:10:24.549Z,19.49
2023-07-02T21:12:46.218Z,19.47
2023-07-02T21:15:08.865Z,19.44
2023-07-02T21:17:30.601Z,19.42
2023-07-02T21:19:52.250Z,19.40
2023-07-02T21:22:14.396Z,19.36
2023-07-02T21:24:36.090Z,19.31
2023-07-02T21:26:58.334Z,19.28
2023-07-02T21:29:20.024Z,19.23
2023-07-02T21:31:41.705Z,19.19
2023-07-02T21:34:03.453Z,19.14
2023-07-02T21:36:25.175Z,19.10
2023-07-02T21:38:47.930Z,19.07
2023-07-02T21:41:09.780Z,19.03
2023-07-02T21:43:31.778Z,19.01
2023-07-02T21:45:55.852Z,18.98
2023-07-02T21:48:17.488Z,18.94
2023-07-02T21:50:39.410Z,18.91
2023-07-02T21:53:01.058Z,18.85
2023-07-02T21:55:22.703Z,18.78
2023-07-02T21:57:44.893Z,18.76
2023-07-02T22:00:11.704Z,18.73
2023-07-02T22:02:39.209Z,18.70
2023-07-02T22:05:01.011Z,18.67
2023-07-02T22:07:22.782Z,18.65
2023-07-02T22:09:44.475Z,18.63
2023-07-02T22:12:06.934Z,18.61
2023-07-02T22:14:28.611Z,18.61
2023-07-02T22:16:50.893Z,18.59
2023-07-02T22:19:12.934Z,18.59
2023-07-02T22:21:34.887Z,18.58
2023-07-02T22:23:56.593Z,18.58
2023-07-02T22:26:18.416Z,18.58
2023-07-02T22:28:40.032Z,18.55
2023-07-02T22:31:03.277Z,18.54
2023-07-02T22:33:25.097Z,18.52
2023-07-02T22:35:49.232Z,18.51
2023-07-02T22:38:12.109Z,18.47
2023-07-02T22:40:33.821Z,18.45
2023-07-02T22:42:55.547Z,18.43
2023-07-02T22:45:17.747Z,18.37
2023-07-02T22:47:41.287Z,18.31
2023-07-02T22:50:05.011Z,18.26
2023-07-02T22:52:26.820Z,18.21
2023-07-02T22:54:48.493Z,18.18
2023-07-02T22:57:10.121Z,18.14
2023-07-02T22:59:31.809Z,18.12
2023-07-02T23:01:54.388Z,18.10
2023-07-02T23:04:16.312Z,18.09
2023-07-02T23:06:39.366Z,18.06
2023-07-02T23:09:00.983Z,18.03
2023-07-02T23:11:22.634Z,18.04
2023-07-02T23:13:44.485Z,18.05
2023-07-02T23:16:07.382Z,18.02
2023-07-02T23:18:30.549Z,18.02
2023-07-02T23:20:55.243Z,18.00
2023-07-02T23:23:17.088Z,17.98
2023-07-02T23:25:39.000Z,17.97
2023-07-02T23:28:04.362Z,17.97
2023-07-02T23:30:28.494Z,17.96
2023-07-02T23:32:51.535Z,17.93
2023-07-02T23:35:15.343Z,17.90
2023-07-02T23:37:38.248Z,17.87
2023-07-02T23:40:00.662Z,17.83
2023-07-02T23:42:22.391Z,17.80
2023-07-02T23:44:44.150Z,17.82
2023-07-02T23:47:06.139Z,17.80
2023-07-02T23:49:27.776Z,17.77
2023-07-02T23:51:49.450Z,17.75
2023-07-02T23:54:11.077Z,17.74
2023-07-02T23:56:32.704Z,17.72
2023-07-02T23:58:54.334Z,17.72
